sensor_id;sensor_type;location;lat;lon;timestamp;P1;durP1;ratioP1;P2;durP2;ratioP2
6985;SDS011;3533;51.246;6.850;2023-03-25T00:01:01;1.40;;;1.10;;
6985;SDS011;3533;51.246;6.850;2023-03-25T00:03:29;1.53;;;1.27;;
6985;SDS011;3533;51.246;6.850;2023-03-25T00:05:57;1.00;;;0.90;;
6985;SDS011;3533;51.246;6.850;2023-03-25T00:08:23;2.13;;;1.17;;
6985;SDS011;3533;51.246;6.850;2023-03-25T00:10:51;1.83;;;1.00;;
6985;SDS011;3533;51.246;6.850;2023-03-25T00:13:18;1.20;;;1.10;;
6985;SDS011;3533;51.246;6.850;2023-03-25T00:15:45;1.70;;;1.37;;
6985;SDS011;3533;51.246;6.850;2023-03-25T00:18:17;1.97;;;1.63;;
6985;SDS011;3533;51.246;6.850;2023-03-25T00:20:49;1.80;;;1.13;;
6985;SDS011;3533;51.246;6.850;2023-03-25T00:23:16;1.70;;;1.03;;
6985;SDS011;3533;51.246;6.850;2023-03-25T00:25:46;1.20;;;0.77;;
6985;SDS011;3533;51.246;6.850;2023-03-25T00:28:12;1.77;;;1.07;;
6985;SDS011;3533;51.246;6.850;2023-03-25T00:30:39;1.40;;;1.10;;
6985;SDS011;3533;51.246;6.850;2023-03-25T00:33:06;1.63;;;1.43;;
6985;SDS011;3533;51.246;6.850;2023-03-25T00:35:35;1.90;;;0.87;;
6985;SDS011;3533;51.246;6.850;2023-03-25T00:38:01;1.00;;;0.90;;
6985;SDS011;3533;51.246;6.850;2023-03-25T00:40:28;1.30;;;1.20;;
6985;SDS011;3533;51.246;6.850;2023-03-25T00:42:58;1.77;;;1.67;;
6985;SDS011;3533;51.246;6.850;2023-03-25T00:45:24;1.20;;;0.90;;
6985;SDS011;3533;51.246;6.850;2023-03-25T00:47:50;1.47;;;1.37;;
6985;SDS011;3533;51.246;6.850;2023-03-25T00:50:16;0.90;;;0.80;;
6985;SDS011;3533;51.246;6.850;2023-03-25T00:52:41;2.10;;;1.00;;
6985;SDS011;3533;51.246;6.850;2023-03-25T00:55:07;1.57;;;0.90;;
6985;SDS011;3533;51.246;6.850;2023-03-25T00:57:33;0.93;;;0.90;;
6985;SDS011;3533;51.246;6.850;2023-03-25T00:59:58;1.00;;;0.90;;
6985;SDS011;3533;51.246;6.850;2023-03-25T01:02:24;1.07;;;0.97;;
6985;SDS011;3533;51.246;6.850;2023-03-25T01:04:50;1.00;;;0.80;;
6985;SDS011;3533;51.246;6.850;2023-03-25T01:07:16;0.70;;;0.70;;
6985;SDS011;3533;51.246;6.850;2023-03-25T01:09:42;1.20;;;0.90;;
6985;SDS011;3533;51.246;6.850;2023-03-25T01:12:10;1.63;;;0.80;;
6985;SDS011;3533;51.246;6.850;2023-03-25T01:14:36;1.10;;;0.90;;
6985;SDS011;3533;51.246;6.850;2023-03-25T01:17:01;1.10;;;1.00;;
6985;SDS011;3533;51.246;6.850;2023-03-25T01:19:27;1.50;;;0.90;;
6985;SDS011;3533;51.246;6.850;2023-03-25T01:21:53;1.33;;;0.70;;
6985;SDS011;3533;51.246;6.850;2023-03-25T01:24:18;0.90;;;0.90;;
6985;SDS011;3533;51.246;6.850;2023-03-25T01:26:44;1.00;;;0.83;;
6985;SDS011;3533;51.246;6.850;2023-03-25T01:29:14;1.97;;;0.80;;
6985;SDS011;3533;51.246;6.850;2023-03-25T01:31:42;1.10;;;0.90;;
6985;SDS011;3533;51.246;6.850;2023-03-25T01:34:08;1.00;;;0.90;;
6985;SDS011;3533;51.246;6.850;2023-03-25T01:36:34;1.00;;;0.90;;
6985;SDS011;3533;51.246;6.850;2023-03-25T01:39:01;0.90;;;0.80;;
6985;SDS011;3533;51.246;6.850;2023-03-25T01:41:29;0.90;;;0.80;;
6985;SDS011;3533;51.246;6.850;2023-03-25T01:46:31;1.40;;;0.90;;
6985;SDS011;3533;51.246;6.850;2023-03-25T01:48:57;0.90;;;0.83;;
6985;SDS011;3533;51.246;6.850;2023-03-25T01:51:28;1.27;;;0.90;;
6985;SDS011;3533;51.246;6.850;2023-03-25T01:53:56;1.00;;;0.80;;
6985;SDS011;3533;51.246;6.850;2023-03-25T01:56:23;1.17;;;1.07;;
6985;SDS011;3533;51.246;6.850;2023-03-25T01:58:54;0.90;;;0.77;;
6985;SDS011;3533;51.246;6.850;2023-03-25T02:01:21;0.80;;;0.60;;
6985;SDS011;3533;51.246;6.850;2023-03-25T02:03:47;1.10;;;0.70;;
6985;SDS011;3533;51.246;6.850;2023-03-25T02:06:24;1.60;;;0.70;;
6985;SDS011;3533;51.246;6.850;2023-03-25T02:09:00;2.40;;;0.80;;
6985;SDS011;3533;51.246;6.850;2023-03-25T02:11:29;1.00;;;0.90;;
6985;SDS011;3533;51.246;6.850;2023-03-25T02:13:55;0.70;;;0.60;;
6985;SDS011;3533;51.246;6.850;2023-03-25T02:19:33;0.93;;;0.73;;
6985;SDS011;3533;51.246;6.850;2023-03-25T02:27:29;2.67;;;0.80;;
6985;SDS011;3533;51.246;6.850;2023-03-25T02:33:13;0.90;;;0.80;;
6985;SDS011;3533;51.246;6.850;2023-03-25T02:35:47;1.50;;;0.70;;
6985;SDS011;3533;51.246;6.850;2023-03-25T02:38:40;0.70;;;0.60;;
6985;SDS011;3533;51.246;6.850;2023-03-25T02:41:22;1.03;;;0.80;;
6985;SDS011;3533;51.246;6.850;2023-03-25T02:44:20;0.70;;;0.60;;
6985;SDS011;3533;51.246;6.850;2023-03-25T02:46:54;0.93;;;0.83;;
6985;SDS011;3533;51.246;6.850;2023-03-25T02:49:27;0.87;;;0.70;;
6985;SDS011;3533;51.246;6.850;2023-03-25T02:54:36;1.00;;;0.80;;
6985;SDS011;3533;51.246;6.850;2023-03-25T02:57:05;0.93;;;0.80;;
6985;SDS011;3533;51.246;6.850;2023-03-25T02:59:32;0.80;;;0.60;;
6985;SDS011;3533;51.246;6.850;2023-03-25T03:02:03;0.90;;;0.70;;
6985;SDS011;3533;51.246;6.850;2023-03-25T03:07:19;0.90;;;0.80;;
6985;SDS011;3533;51.246;6.850;2023-03-25T03:09:50;0.80;;;0.70;;
6985;SDS011;3533;51.246;6.850;2023-03-25T03:23:42;1.00;;;0.73;;
6985;SDS011;3533;51.246;6.850;2023-03-25T03:29:49;0.80;;;0.73;;
6985;SDS011;3533;51.246;6.850;2023-03-25T03:34:36;1.17;;;0.80;;
6985;SDS011;3533;51.246;6.850;2023-03-25T03:37:25;0.70;;;0.60;;
6985;SDS011;3533;51.246;6.850;2023-03-25T03:39:56;0.80;;;0.70;;
6985;SDS011;3533;51.246;6.850;2023-03-25T03:45:02;0.80;;;0.80;;
6985;SDS011;3533;51.246;6.850;2023-03-25T03:47:51;0.80;;;0.60;;
6985;SDS011;3533;51.246;6.850;2023-03-25T03:50:21;0.70;;;0.60;;
6985;SDS011;3533;51.246;6.850;2023-03-25T03:53:00;0.97;;;0.70;;
6985;SDS011;3533;51.246;6.850;2023-03-25T03:55:40;2.03;;;1.03;;
6985;SDS011;3533;51.246;6.850;2023-03-25T03:58:39;1.20;;;0.90;;
6985;SDS011;3533;51.246;6.850;2023-03-25T04:01:21;0.83;;;0.60;;
6985;SDS011;3533;51.246;6.850;2023-03-25T04:03:58;0.80;;;0.60;;
6985;SDS011;3533;51.246;6.850;2023-03-25T04:11:43;0.80;;;0.80;;
6985;SDS011;3533;51.246;6.850;2023-03-25T04:14:42;0.90;;;0.80;;
6985;SDS011;3533;51.246;6.850;2023-03-25T04:17:09;0.90;;;0.60;;
6985;SDS011;3533;51.246;6.850;2023-03-25T04:19:34;0.90;;;0.80;;
6985;SDS011;3533;51.246;6.850;2023-03-25T04:22:00;0.70;;;0.60;;
6985;SDS011;3533;51.246;6.850;2023-03-25T04:24:27;0.60;;;0.57;;
6985;SDS011;3533;51.246;6.850;2023-03-25T04:26:56;0.70;;;0.70;;
6985;SDS011;3533;51.246;6.850;2023-03-25T04:29:31;0.70;;;0.60;;
6985;SDS011;3533;51.246;6.850;2023-03-25T04:31:58;0.70;;;0.70;;
6985;SDS011;3533;51.246;6.850;2023-03-25T04:34:24;0.70;;;0.67;;
6985;SDS011;3533;51.246;6.850;2023-03-25T04:36:51;0.70;;;0.60;;
6985;SDS011;3533;51.246;6.850;2023-03-25T04:39:17;0.80;;;0.70;;
6985;SDS011;3533;51.246;6.850;2023-03-25T04:41:46;0.80;;;0.67;;
6985;SDS011;3533;51.246;6.850;2023-03-25T04:44:15;2.10;;;1.03;;
6985;SDS011;3533;51.246;6.850;2023-03-25T04:46:41;0.80;;;0.70;;
6985;SDS011;3533;51.246;6.850;2023-03-25T04:49:08;1.20;;;0.70;;
6985;SDS011;3533;51.246;6.850;2023-03-25T04:51:43;0.90;;;0.70;;
6985;SDS011;3533;51.246;6.850;2023-03-25T04:54:09;0.83;;;0.70;;
6985;SDS011;3533;51.246;6.850;2023-03-25T04:56:35;1.00;;;0.90;;
6985;SDS011;3533;51.246;6.850;2023-03-25T04:59:01;0.80;;;0.67;;
6985;SDS011;3533;51.246;6.850;2023-03-25T05:01:28;0.80;;;0.60;;
6985;SDS011;3533;51.246;6.850;2023-03-25T05:03:57;0.93;;;0.63;;
6985;SDS011;3533;51.246;6.850;2023-03-25T05:06:32;0.70;;;0.57;;
6985;SDS011;3533;51.246;6.850;2023-03-25T05:09:00;1.20;;;0.67;;
6985;SDS011;3533;51.246;6.850;2023-03-25T05:11:28;0.90;;;0.70;;
6985;SDS011;3533;51.246;6.850;2023-03-25T05:13:54;0.80;;;0.70;;
6985;SDS011;3533;51.246;6.850;2023-03-25T05:16:20;0.90;;;0.77;;
6985;SDS011;3533;51.246;6.850;2023-03-25T05:18:46;0.70;;;0.70;;
6985;SDS011;3533;51.246;6.850;2023-03-25T05:21:12;1.57;;;0.80;;
6985;SDS011;3533;51.246;6.850;2023-03-25T05:23:37;0.70;;;0.63;;
6985;SDS011;3533;51.246;6.850;2023-03-25T05:26:03;1.23;;;0.60;;
6985;SDS011;3533;51.246;6.850;2023-03-25T05:28:30;0.97;;;0.73;;
6985;SDS011;3533;51.246;6.850;2023-03-25T05:30:55;0.60;;;0.60;;
6985;SDS011;3533;51.246;6.850;2023-03-25T05:33:22;0.80;;;0.70;;
6985;SDS011;3533;51.246;6.850;2023-03-25T05:35:47;1.00;;;0.70;;
6985;SDS011;3533;51.246;6.850;2023-03-25T05:38:13;0.70;;;0.60;;
6985;SDS011;3533;51.246;6.850;2023-03-25T05:40:45;1.83;;;0.77;;
6985;SDS011;3533;51.246;6.850;2023-03-25T05:43:12;1.03;;;0.93;;
6985;SDS011;3533;51.246;6.850;2023-03-25T05:45:39;3.87;;;1.27;;
6985;SDS011;3533;51.246;6.850;2023-03-25T05:48:06;0.80;;;0.60;;
6985;SDS011;3533;51.246;6.850;2023-03-25T05:50:32;1.37;;;0.70;;
6985;SDS011;3533;51.246;6.850;2023-03-25T05:52:58;0.70;;;0.60;;
6985;SDS011;3533;51.246;6.850;2023-03-25T05:55:24;0.87;;;0.60;;
6985;SDS011;3533;51.246;6.850;2023-03-25T05:57:50;0.87;;;0.70;;
6985;SDS011;3533;51.246;6.850;2023-03-25T06:00:16;0.80;;;0.63;;
6985;SDS011;3533;51.246;6.850;2023-03-25T06:02:43;0.83;;;0.70;;
6985;SDS011;3533;51.246;6.850;2023-03-25T06:05:10;1.80;;;0.80;;
6985;SDS011;3533;51.246;6.850;2023-03-25T06:07:38;0.80;;;0.60;;
6985;SDS011;3533;51.246;6.850;2023-03-25T06:10:11;0.80;;;0.70;;
6985;SDS011;3533;51.246;6.850;2023-03-25T06:12:41;0.80;;;0.60;;
6985;SDS011;3533;51.246;6.850;2023-03-25T06:15:08;1.77;;;0.60;;
6985;SDS011;3533;51.246;6.850;2023-03-25T06:17:34;0.63;;;0.60;;
6985;SDS011;3533;51.246;6.850;2023-03-25T06:20:03;0.90;;;0.67;;
6985;SDS011;3533;51.246;6.850;2023-03-25T06:22:36;0.90;;;0.60;;
6985;SDS011;3533;51.246;6.850;2023-03-25T06:25:07;1.70;;;0.80;;
6985;SDS011;3533;51.246;6.850;2023-03-25T06:27:33;0.80;;;0.63;;
6985;SDS011;3533;51.246;6.850;2023-03-25T06:30:04;0.80;;;0.70;;
6985;SDS011;3533;51.246;6.850;2023-03-25T06:32:31;0.90;;;0.60;;
6985;SDS011;3533;51.246;6.850;2023-03-25T06:34:57;0.97;;;0.80;;
6985;SDS011;3533;51.246;6.850;2023-03-25T06:37:22;1.53;;;0.73;;
6985;SDS011;3533;51.246;6.850;2023-03-25T06:39:50;1.23;;;0.77;;
6985;SDS011;3533;51.246;6.850;2023-03-25T06:42:20;1.60;;;0.80;;
6985;SDS011;3533;51.246;6.850;2023-03-25T06:44:47;0.80;;;0.60;;
6985;SDS011;3533;51.246;6.850;2023-03-25T06:47:13;2.70;;;0.73;;
6985;SDS011;3533;51.246;6.850;2023-03-25T06:49:39;1.13;;;0.60;;
6985;SDS011;3533;51.246;6.850;2023-03-25T06:52:04;0.90;;;0.70;;
6985;SDS011;3533;51.246;6.850;2023-03-25T06:54:30;2.57;;;0.67;;
6985;SDS011;3533;51.246;6.850;2023-03-25T06:56:55;0.80;;;0.80;;
6985;SDS011;3533;51.246;6.850;2023-03-25T06:59:21;0.87;;;0.60;;
6985;SDS011;3533;51.246;6.850;2023-03-25T07:01:47;0.93;;;0.63;;
6985;SDS011;3533;51.246;6.850;2023-03-25T07:04:12;0.70;;;0.50;;
6985;SDS011;3533;51.246;6.850;2023-03-25T07:06:38;1.90;;;0.67;;
6985;SDS011;3533;51.246;6.850;2023-03-25T07:09:03;1.13;;;0.90;;
6985;SDS011;3533;51.246;6.850;2023-03-25T07:11:29;0.73;;;0.73;;
6985;SDS011;3533;51.246;6.850;2023-03-25T07:13:56;0.70;;;0.70;;
6985;SDS011;3533;51.246;6.850;2023-03-25T07:16:21;1.10;;;0.80;;
6985;SDS011;3533;51.246;6.850;2023-03-25T07:18:48;0.80;;;0.70;;
6985;SDS011;3533;51.246;6.850;2023-03-25T07:21:14;0.90;;;0.70;;
6985;SDS011;3533;51.246;6.850;2023-03-25T07:23:40;0.80;;;0.63;;
6985;SDS011;3533;51.246;6.850;2023-03-25T07:26:06;1.10;;;0.60;;
6985;SDS011;3533;51.246;6.850;2023-03-25T07:28:32;1.03;;;0.70;;
6985;SDS011;3533;51.246;6.850;2023-03-25T07:30:57;0.80;;;0.60;;
6985;SDS011;3533;51.246;6.850;2023-03-25T07:33:23;0.90;;;0.70;;
6985;SDS011;3533;51.246;6.850;2023-03-25T07:35:48;0.80;;;0.60;;
6985;SDS011;3533;51.246;6.850;2023-03-25T07:38:14;0.70;;;0.60;;
6985;SDS011;3533;51.246;6.850;2023-03-25T07:40:40;1.00;;;0.70;;
6985;SDS011;3533;51.246;6.850;2023-03-25T07:43:05;0.80;;;0.70;;
6985;SDS011;3533;51.246;6.850;2023-03-25T07:45:31;1.30;;;0.60;;
6985;SDS011;3533;51.246;6.850;2023-03-25T07:47:58;0.70;;;0.60;;
6985;SDS011;3533;51.246;6.850;2023-03-25T07:50:27;0.83;;;0.80;;
6985;SDS011;3533;51.246;6.850;2023-03-25T07:52:53;0.90;;;0.70;;
6985;SDS011;3533;51.246;6.850;2023-03-25T07:55:19;1.10;;;0.60;;
6985;SDS011;3533;51.246;6.850;2023-03-25T07:57:45;0.80;;;0.70;;
6985;SDS011;3533;51.246;6.850;2023-03-25T08:00:10;0.80;;;0.70;;
6985;SDS011;3533;51.246;6.850;2023-03-25T08:02:36;1.00;;;0.80;;
6985;SDS011;3533;51.246;6.850;2023-03-25T08:05:03;3.43;;;0.80;;
6985;SDS011;3533;51.246;6.850;2023-03-25T08:07:29;0.70;;;0.60;;
6985;SDS011;3533;51.246;6.850;2023-03-25T08:09:55;0.80;;;0.70;;
6985;SDS011;3533;51.246;6.850;2023-03-25T08:12:21;0.93;;;0.60;;
6985;SDS011;3533;51.246;6.850;2023-03-25T08:14:46;2.10;;;1.00;;
6985;SDS011;3533;51.246;6.850;2023-03-25T08:17:12;1.30;;;0.73;;
6985;SDS011;3533;51.246;6.850;2023-03-25T08:19:37;1.07;;;0.70;;
6985;SDS011;3533;51.246;6.850;2023-03-25T08:22:03;1.10;;;0.70;;
6985;SDS011;3533;51.246;6.850;2023-03-25T08:24:29;1.70;;;0.60;;
6985;SDS011;3533;51.246;6.850;2023-03-25T08:26:56;0.70;;;0.60;;
6985;SDS011;3533;51.246;6.850;2023-03-25T08:29:24;1.20;;;0.63;;
6985;SDS011;3533;51.246;6.850;2023-03-25T08:31:51;1.73;;;1.30;;
6985;SDS011;3533;51.246;6.850;2023-03-25T08:34:17;3.80;;;1.97;;
6985;SDS011;3533;51.246;6.850;2023-03-25T08:36:44;6.97;;;2.00;;
6985;SDS011;3533;51.246;6.850;2023-03-25T08:39:10;2.50;;;1.70;;
6985;SDS011;3533;51.246;6.850;2023-03-25T08:41:36;4.53;;;1.60;;
6985;SDS011;3533;51.246;6.850;2023-03-25T08:44:03;2.17;;;1.53;;
6985;SDS011;3533;51.246;6.850;2023-03-25T08:46:29;2.47;;;1.43;;
6985;SDS011;3533;51.246;6.850;2023-03-25T08:48:55;1.90;;;1.80;;
6985;SDS011;3533;51.246;6.850;2023-03-25T08:51:21;3.60;;;2.00;;
6985;SDS011;3533;51.246;6.850;2023-03-25T08:53:46;5.67;;;1.60;;
6985;SDS011;3533;51.246;6.850;2023-03-25T08:56:12;2.00;;;1.20;;
6985;SDS011;3533;51.246;6.850;2023-03-25T08:58:38;3.03;;;1.40;;
6985;SDS011;3533;51.246;6.850;2023-03-25T09:01:04;7.23;;;1.50;;
6985;SDS011;3533;51.246;6.850;2023-03-25T09:03:30;2.30;;;1.30;;
6985;SDS011;3533;51.246;6.850;2023-03-25T09:05:57;5.43;;;1.90;;
6985;SDS011;3533;51.246;6.850;2023-03-25T09:08:22;3.30;;;1.60;;
6985;SDS011;3533;51.246;6.850;2023-03-25T09:10:48;1.47;;;1.37;;
6985;SDS011;3533;51.246;6.850;2023-03-25T09:13:13;5.77;;;1.33;;
6985;SDS011;3533;51.246;6.850;2023-03-25T09:15:39;4.50;;;1.60;;
6985;SDS011;3533;51.246;6.850;2023-03-25T09:18:05;1.40;;;0.90;;
6985;SDS011;3533;51.246;6.850;2023-03-25T09:20:31;1.50;;;1.10;;
6985;SDS011;3533;51.246;6.850;2023-03-25T09:22:57;1.40;;;1.30;;
6985;SDS011;3533;51.246;6.850;2023-03-25T09:25:23;2.10;;;1.03;;
6985;SDS011;3533;51.246;6.850;2023-03-25T09:27:49;4.53;;;1.47;;
6985;SDS011;3533;51.246;6.850;2023-03-25T09:30:15;1.50;;;1.00;;
6985;SDS011;3533;51.246;6.850;2023-03-25T09:32:40;2.57;;;1.27;;
6985;SDS011;3533;51.246;6.850;2023-03-25T09:35:06;1.17;;;1.00;;
6985;SDS011;3533;51.246;6.850;2023-03-25T09:37:32;1.27;;;1.10;;
6985;SDS011;3533;51.246;6.850;2023-03-25T09:39:58;2.17;;;1.10;;
6985;SDS011;3533;51.246;6.850;2023-03-25T09:42:32;1.27;;;1.00;;
6985;SDS011;3533;51.246;6.850;2023-03-25T09:45:29;2.40;;;1.00;;
6985;SDS011;3533;51.246;6.850;2023-03-25T09:48:00;4.30;;;1.30;;
6985;SDS011;3533;51.246;6.850;2023-03-25T09:50:30;1.23;;;1.00;;
6985;SDS011;3533;51.246;6.850;2023-03-25T09:53:42;1.40;;;1.00;;
6985;SDS011;3533;51.246;6.850;2023-03-25T09:55:50;2.23;;;1.30;;
6985;SDS011;3533;51.246;6.850;2023-03-25T10:00:54;2.53;;;0.97;;
6985;SDS011;3533;51.246;6.850;2023-03-25T10:03:50;1.13;;;1.03;;
6985;SDS011;3533;51.246;6.850;2023-03-25T10:06:14;1.27;;;1.00;;
6985;SDS011;3533;51.246;6.850;2023-03-25T10:22:08;1.00;;;0.90;;
6985;SDS011;3533;51.246;6.850;2023-03-25T10:24:48;3.10;;;0.90;;
6985;SDS011;3533;51.246;6.850;2023-03-25T10:30:31;1.33;;;1.00;;
6985;SDS011;3533;51.246;6.850;2023-03-25T10:33:13;2.07;;;0.90;;
6985;SDS011;3533;51.246;6.850;2023-03-25T10:35:43;0.90;;;0.80;;
6985;SDS011;3533;51.246;6.850;2023-03-25T10:38:15;1.50;;;1.00;;
6985;SDS011;3533;51.246;6.850;2023-03-25T10:40:45;1.57;;;1.07;;
6985;SDS011;3533;51.246;6.850;2023-03-25T10:43:37;4.50;;;1.37;;
6985;SDS011;3533;51.246;6.850;2023-03-25T10:49:30;1.53;;;1.03;;
6985;SDS011;3533;51.246;6.850;2023-03-25T10:51:57;1.17;;;1.07;;
6985;SDS011;3533;51.246;6.850;2023-03-25T10:54:32;2.07;;;1.37;;
6985;SDS011;3533;51.246;6.850;2023-03-25T10:57:02;1.20;;;1.10;;
6985;SDS011;3533;51.246;6.850;2023-03-25T10:59:32;1.13;;;0.73;;
6985;SDS011;3533;51.246;6.850;2023-03-25T11:02:12;0.90;;;0.70;;
6985;SDS011;3533;51.246;6.850;2023-03-25T11:04:42;1.63;;;1.00;;
6985;SDS011;3533;51.246;6.850;2023-03-25T11:07:26;0.90;;;0.80;;
6985;SDS011;3533;51.246;6.850;2023-03-25T11:12:43;2.00;;;1.30;;
6985;SDS011;3533;51.246;6.850;2023-03-25T11:15:18;1.40;;;0.90;;
6985;SDS011;3533;51.246;6.850;2023-03-25T11:17:45;0.97;;;0.93;;
6985;SDS011;3533;51.246;6.850;2023-03-25T11:20:21;1.20;;;0.90;;
6985;SDS011;3533;51.246;6.850;2023-03-25T11:22:52;3.63;;;0.90;;
6985;SDS011;3533;51.246;6.850;2023-03-25T11:27:55;145.70;;;10.63;;
6985;SDS011;3533;51.246;6.850;2023-03-25T11:30:24;9.07;;;2.50;;
6985;SDS011;3533;51.246;6.850;2023-03-25T11:35:37;3.17;;;1.50;;
6985;SDS011;3533;51.246;6.850;2023-03-25T11:38:13;1.97;;;0.90;;
6985;SDS011;3533;51.246;6.850;2023-03-25T11:40:52;11.13;;;1.10;;
6985;SDS011;3533;51.246;6.850;2023-03-25T11:43:23;1.00;;;0.80;;
6985;SDS011;3533;51.246;6.850;2023-03-25T11:45:51;3.17;;;1.00;;
6985;SDS011;3533;51.246;6.850;2023-03-25T11:48:23;2.40;;;1.17;;
6985;SDS011;3533;51.246;6.850;2023-03-25T11:50:56;1.70;;;1.13;;
6985;SDS011;3533;51.246;6.850;2023-03-25T11:53:25;5.17;;;1.03;;
6985;SDS011;3533;51.246;6.850;2023-03-25T11:55:55;2.80;;;1.00;;
6985;SDS011;3533;51.246;6.850;2023-03-25T11:58:27;4.23;;;1.10;;
6985;SDS011;3533;51.246;6.850;2023-03-25T12:01:03;2.63;;;0.90;;
6985;SDS011;3533;51.246;6.850;2023-03-25T12:03:31;2.57;;;1.13;;
6985;SDS011;3533;51.246;6.850;2023-03-25T12:06:06;2.50;;;0.93;;
6985;SDS011;3533;51.246;6.850;2023-03-25T12:08:50;1.03;;;0.77;;
6985;SDS011;3533;51.246;6.850;2023-03-25T12:11:39;1.77;;;1.10;;
6985;SDS011;3533;51.246;6.850;2023-03-25T12:14:22;5.73;;;1.50;;
6985;SDS011;3533;51.246;6.850;2023-03-25T12:17:07;1.37;;;0.80;;
6985;SDS011;3533;51.246;6.850;2023-03-25T12:20:07;1.10;;;0.90;;
6985;SDS011;3533;51.246;6.850;2023-03-25T12:36:35;2.97;;;1.10;;
6985;SDS011;3533;51.246;6.850;2023-03-25T12:42:29;1.00;;;0.90;;
6985;SDS011;3533;51.246;6.850;2023-03-25T12:45:05;1.30;;;1.20;;
6985;SDS011;3533;51.246;6.850;2023-03-25T12:47:52;0.77;;;0.77;;
6985;SDS011;3533;51.246;6.850;2023-03-25T12:50:34;1.40;;;1.07;;
6985;SDS011;3533;51.246;6.850;2023-03-25T12:53:35;1.73;;;0.90;;
6985;SDS011;3533;51.246;6.850;2023-03-25T12:59:18;5.30;;;0.90;;
6985;SDS011;3533;51.246;6.850;2023-03-25T13:04:47;2.37;;;0.83;;
6985;SDS011;3533;51.246;6.850;2023-03-25T13:07:38;1.00;;;0.77;;
6985;SDS011;3533;51.246;6.850;2023-03-25T13:10:57;4.20;;;1.27;;
6985;SDS011;3533;51.246;6.850;2023-03-25T13:13:02;2.80;;;0.90;;
6985;SDS011;3533;51.246;6.850;2023-03-25T13:15:36;1.37;;;1.00;;
6985;SDS011;3533;51.246;6.850;2023-03-25T13:20:51;1.47;;;0.83;;
6985;SDS011;3533;51.246;6.850;2023-03-25T13:23:27;1.60;;;0.80;;
6985;SDS011;3533;51.246;6.850;2023-03-25T13:26:04;5.07;;;0.90;;
6985;SDS011;3533;51.246;6.850;2023-03-25T13:28:36;1.53;;;0.90;;
6985;SDS011;3533;51.246;6.850;2023-03-25T13:31:12;1.00;;;0.80;;
6985;SDS011;3533;51.246;6.850;2023-03-25T13:33:42;1.33;;;1.00;;
6985;SDS011;3533;51.246;6.850;2023-03-25T13:36:14;1.73;;;0.77;;
6985;SDS011;3533;51.246;6.850;2023-03-25T13:38:50;1.83;;;0.80;;
6985;SDS011;3533;51.246;6.850;2023-03-25T13:44:07;1.47;;;1.00;;
6985;SDS011;3533;51.246;6.850;2023-03-25T13:46:49;1.10;;;0.70;;
6985;SDS011;3533;51.246;6.850;2023-03-25T13:49:36;2.13;;;0.90;;
6985;SDS011;3533;51.246;6.850;2023-03-25T13:52:12;0.90;;;0.80;;
6985;SDS011;3533;51.246;6.850;2023-03-25T13:54:40;2.30;;;0.90;;
6985;SDS011;3533;51.246;6.850;2023-03-25T14:00:29;1.10;;;0.90;;
6985;SDS011;3533;51.246;6.850;2023-03-25T14:03:08;1.10;;;1.00;;
6985;SDS011;3533;51.246;6.850;2023-03-25T14:05:45;1.30;;;1.00;;
6985;SDS011;3533;51.246;6.850;2023-03-25T14:08:34;1.87;;;0.70;;
6985;SDS011;3533;51.246;6.850;2023-03-25T14:13:57;1.33;;;1.00;;
6985;SDS011;3533;51.246;6.850;2023-03-25T14:16:36;0.90;;;0.70;;
6985;SDS011;3533;51.246;6.850;2023-03-25T14:19:09;4.13;;;2.07;;
6985;SDS011;3533;51.246;6.850;2023-03-25T14:24:05;3.73;;;1.43;;
6985;SDS011;3533;51.246;6.850;2023-03-25T14:27:04;5.87;;;1.40;;
6985;SDS011;3533;51.246;6.850;2023-03-25T14:29:38;4.57;;;1.20;;
6985;SDS011;3533;51.246;6.850;2023-03-25T14:34:40;5.67;;;1.50;;
6985;SDS011;3533;51.246;6.850;2023-03-25T14:42:01;4.57;;;1.20;;
6985;SDS011;3533;51.246;6.850;2023-03-25T14:44:46;9.27;;;1.50;;
6985;SDS011;3533;51.246;6.850;2023-03-25T14:49:47;3.23;;;1.60;;
6985;SDS011;3533;51.246;6.850;2023-03-25T14:52:18;4.80;;;1.70;;
6985;SDS011;3533;51.246;6.850;2023-03-25T14:54:52;5.23;;;1.27;;
6985;SDS011;3533;51.246;6.850;2023-03-25T14:57:20;4.00;;;1.20;;
6985;SDS011;3533;51.246;6.850;2023-03-25T14:59:49;3.43;;;1.17;;
6985;SDS011;3533;51.246;6.850;2023-03-25T15:02:33;5.00;;;1.40;;
6985;SDS011;3533;51.246;6.850;2023-03-25T15:05:01;3.73;;;1.30;;
6985;SDS011;3533;51.246;6.850;2023-03-25T15:07:50;3.07;;;1.13;;
6985;SDS011;3533;51.246;6.850;2023-03-25T15:10:29;2.93;;;1.10;;
6985;SDS011;3533;51.246;6.850;2023-03-25T15:13:05;1.60;;;0.97;;
6985;SDS011;3533;51.246;6.850;2023-03-25T15:18:11;7.87;;;1.30;;
6985;SDS011;3533;51.246;6.850;2023-03-25T15:45:21;60.00;;;7.10;;
6985;SDS011;3533;51.246;6.850;2023-03-25T15:56:31;79.07;;;15.17;;
6985;SDS011;3533;51.246;6.850;2023-03-25T15:59:02;64.67;;;13.07;;
6985;SDS011;3533;51.246;6.850;2023-03-25T16:01:32;84.10;;;18.30;;
6985;SDS011;3533;51.246;6.850;2023-03-25T16:04:04;102.43;;;20.87;;
6985;SDS011;3533;51.246;6.850;2023-03-25T16:06:44;107.37;;;21.13;;
6985;SDS011;3533;51.246;6.850;2023-03-25T16:09:14;72.47;;;15.97;;
6985;SDS011;3533;51.246;6.850;2023-03-25T16:11:43;41.87;;;14.33;;
6985;SDS011;3533;51.246;6.850;2023-03-25T16:14:11;50.80;;;13.77;;
6985;SDS011;3533;51.246;6.850;2023-03-25T16:16:38;53.47;;;13.63;;
6985;SDS011;3533;51.246;6.850;2023-03-25T16:19:09;48.37;;;12.43;;
6985;SDS011;3533;51.246;6.850;2023-03-25T16:21:39;46.93;;;13.10;;
6985;SDS011;3533;51.246;6.850;2023-03-25T16:24:05;34.80;;;11.50;;
6985;SDS011;3533;51.246;6.850;2023-03-25T16:26:34;34.30;;;11.07;;
6985;SDS011;3533;51.246;6.850;2023-03-25T16:29:06;42.63;;;11.07;;
6985;SDS011;3533;51.246;6.850;2023-03-25T16:31:48;39.33;;;10.20;;
6985;SDS011;3533;51.246;6.850;2023-03-25T16:34:16;39.97;;;10.87;;
6985;SDS011;3533;51.246;6.850;2023-03-25T16:36:42;29.93;;;9.77;;
6985;SDS011;3533;51.246;6.850;2023-03-25T16:39:12;42.37;;;10.97;;
6985;SDS011;3533;51.246;6.850;2023-03-25T16:41:43;35.67;;;10.40;;
6985;SDS011;3533;51.246;6.850;2023-03-25T16:44:20;25.57;;;9.30;;
6985;SDS011;3533;51.246;6.850;2023-03-25T16:46:47;31.53;;;9.10;;
6985;SDS011;3533;51.246;6.850;2023-03-25T16:49:19;20.13;;;9.43;;
6985;SDS011;3533;51.246;6.850;2023-03-25T16:51:51;27.03;;;10.00;;
6985;SDS011;3533;51.246;6.850;2023-03-25T16:54:36;22.53;;;8.20;;
6985;SDS011;3533;51.246;6.850;2023-03-25T16:57:10;21.47;;;8.97;;
6985;SDS011;3533;51.246;6.850;2023-03-25T16:59:43;24.73;;;8.60;;
6985;SDS011;3533;51.246;6.850;2023-03-25T17:04:50;33.00;;;9.63;;
6985;SDS011;3533;51.246;6.850;2023-03-25T17:07:18;26.73;;;7.13;;
6985;SDS011;3533;51.246;6.850;2023-03-25T17:09:50;20.87;;;8.57;;
6985;SDS011;3533;51.246;6.850;2023-03-25T17:12:19;22.00;;;7.40;;
6985;SDS011;3533;51.246;6.850;2023-03-25T17:14:47;17.43;;;7.40;;
6985;SDS011;3533;51.246;6.850;2023-03-25T17:19:55;19.20;;;6.70;;
6985;SDS011;3533;51.246;6.850;2023-03-25T17:22:32;16.10;;;6.43;;
6985;SDS011;3533;51.246;6.850;2023-03-25T17:25:14;19.87;;;6.23;;
6985;SDS011;3533;51.246;6.850;2023-03-25T17:27:55;11.30;;;5.63;;
6985;SDS011;3533;51.246;6.850;2023-03-25T17:30:41;13.53;;;5.77;;
6985;SDS011;3533;51.246;6.850;2023-03-25T17:33:10;15.30;;;5.27;;
6985;SDS011;3533;51.246;6.850;2023-03-25T17:35:39;19.80;;;6.53;;
6985;SDS011;3533;51.246;6.850;2023-03-25T17:38:10;13.70;;;4.73;;
6985;SDS011;3533;51.246;6.850;2023-03-25T17:40:43;16.10;;;4.80;;
6985;SDS011;3533;51.246;6.850;2023-03-25T17:43:14;8.37;;;4.17;;
6985;SDS011;3533;51.246;6.850;2023-03-25T17:45:42;9.03;;;4.87;;
6985;SDS011;3533;51.246;6.850;2023-03-25T17:48:09;14.30;;;5.13;;
6985;SDS011;3533;51.246;6.850;2023-03-25T17:50:48;10.07;;;4.73;;
6985;SDS011;3533;51.246;6.850;2023-03-25T17:53:19;4.97;;;4.47;;
6985;SDS011;3533;51.246;6.850;2023-03-25T17:55:45;7.77;;;2.90;;
6985;SDS011;3533;51.246;6.850;2023-03-25T17:58:13;9.57;;;3.20;;
6985;SDS011;3533;51.246;6.850;2023-03-25T18:00:39;9.83;;;4.33;;
6985;SDS011;3533;51.246;6.850;2023-03-25T18:03:09;6.50;;;2.80;;
6985;SDS011;3533;51.246;6.850;2023-03-25T18:05:35;3.13;;;2.83;;
6985;SDS011;3533;51.246;6.850;2023-03-25T18:08:01;3.17;;;2.73;;
6985;SDS011;3533;51.246;6.850;2023-03-25T18:10:28;2.83;;;2.40;;
6985;SDS011;3533;51.246;6.850;2023-03-25T18:12:54;3.00;;;2.50;;
6985;SDS011;3533;51.246;6.850;2023-03-25T18:15:20;5.50;;;3.03;;
6985;SDS011;3533;51.246;6.850;2023-03-25T18:17:45;4.63;;;2.43;;